Time;durP1;ratioP1;P1;durP2;ratioP2;P2;SDS_P1;SDS_P2;PMS_P1;PMS_P2;Temp;Humidity;BMP_temperature;BMP_pressure;BME280_temperature;BME280_humidity;BME280_pressure;Samples;Min_cycle;Max_cycle;Signal;HPM_P1;HPM_P2
2022/01/25 00:15:11;;;;;;;16.50;8.58;;;;;;;-6.91;100.00;101816.03;1685400;85;21070;-87
2022/01/25 00:28:39;;;;;;;17.85;8.70;;;;;;;-6.96;100.00;101791.89;1662410;85;21062;-86
2022/01/25 00:33:49;;;;;;;15.08;7.12;;;;;;;-6.94;100.00;101795.31;1685062;85;21046;-87
2022/01/25 00:36:19;;;;;;;15.72;7.65;;;;;;;-6.94;100.00;101796.58;1682084;85;21117;-86
2022/01/25 00:38:47;;;;;;;14.70;7.42;;;;;;;-6.95;100.00;101791.50;1685565;85;21105;-86
2022/01/25 00:41:16;;;;;;;15.88;7.50;;;;;;;-6.95;100.00;101782.63;1685403;85;21041;-88
2022/01/25 00:43:44;;;;;;;15.00;7.50;;;;;;;-6.96;100.00;101780.50;1685758;85;21086;-87
2022/01/25 00:46:12;;;;;;;16.80;7.67;;;;;;;-6.96;100.00;101790.63;1685230;85;21022;-88
2022/01/25 00:48:48;;;;;;;21.73;8.80;;;;;;;-6.97;100.00;101788.52;1669807;85;21690;-88
2022/01/25 00:51:47;;;;;;;17.48;8.58;;;;;;;-6.97;100.00;101786.42;1657056;86;21177;-86
2022/01/25 00:54:11;;;;;;;15.38;8.05;;;;;;;-6.95;100.00;101783.90;1631299;86;21610;-86
2022/01/25 00:56:37;;;;;;;17.37;8.15;;;;;;;-6.97;100.00;101783.89;1656587;85;21105;-88
2022/01/25 00:59:09;;;;;;;18.05;8.68;;;;;;;-6.99;100.00;101778.77;1657620;86;21062;-87
2022/01/25 01:01:38;;;;;;;18.00;8.60;;;;;;;-7.01;100.00;101781.69;1656768;86;21125;-88
2022/01/25 01:04:09;;;;;;;16.30;8.25;;;;;;;-7.03;100.00;101779.96;1628862;87;21071;-86
2022/01/25 01:06:37;;;;;;;19.20;8.90;;;;;;;-7.05;100.00;101787.55;1628532;86;21067;-88
2022/01/25 01:09:11;;;;;;;21.27;9.58;;;;;;;-7.05;100.00;101791.34;1628022;87;21061;-89
2022/01/25 01:11:48;;;;;;;17.82;9.05;;;;;;;-7.10;100.00;101789.16;1628522;86;21055;-86
2022/01/25 01:38:18;;;;;;;19.17;9.45;;;;;;;-7.22;100.00;101768.68;1635528;86;21088;-86
2022/01/25 01:41:06;;;;;;;17.73;8.70;;;;;;;-7.23;100.00;101764.44;1638360;85;21104;-89
2022/01/25 01:43:38;;;;;;;16.00;8.15;;;;;;;-7.22;100.00;101768.28;1637255;86;21835;-89
2022/01/25 01:46:28;;;;;;;17.70;8.78;;;;;;;-7.20;100.00;101759.44;1635119;86;21071;-89
2022/01/25 01:48:48;;;;;;;18.35;8.73;;;;;;;-7.20;100.00;101774.62;1637195;86;21086;-89
2022/01/25 01:51:14;;;;;;;18.57;8.60;;;;;;;-7.18;100.00;101779.31;1637669;86;21559;-87
2022/01/25 01:53:36;;;;;;;16.10;7.87;;;;;;;-7.18;100.00;101784.38;1666681;86;21101;-87
2022/01/25 01:56:04;;;;;;;17.07;8.63;;;;;;;-7.18;100.00;101780.16;1644681;86;21229;-86
2022/01/25 01:58:37;;;;;;;14.63;7.45;;;;;;;-7.16;100.00;101784.84;1646052;86;21058;-86
2022/01/25 02:01:08;;;;;;;15.40;7.95;;;;;;;-7.14;100.00;101794.98;1632186;87;21133;-87
2022/01/25 02:03:36;;;;;;;15.68;7.92;;;;;;;-7.12;100.00;101799.67;1645017;86;21047;-87
2022/01/25 02:06:04;;;;;;;14.58;7.95;;;;;;;-7.11;100.00;101806.84;1644844;86;21031;-87
2022/01/25 02:08:31;;;;;;;11.33;6.15;;;;;;;-7.13;100.00;101801.75;1645786;86;21525;-87
2022/01/25 02:10:58;;;;;;;12.37;6.80;;;;;;;-7.17;100.00;101792.41;1646144;86;21051;-88
2022/01/25 02:13:26;;;;;;;12.75;6.70;;;;;;;-7.18;100.00;101798.30;1648420;86;21066;-88
2022/01/25 02:15:56;;;;;;;9.90;6.28;;;;;;;-7.19;100.00;101785.20;1645402;86;21074;-87
2022/01/25 02:23:44;;;;;;;10.75;5.85;;;;;;;-7.21;100.00;101789.37;1628444;87;21576;-87
2022/01/25 02:26:14;;;;;;;15.43;6.67;;;;;;;-7.22;100.00;101791.47;1648032;87;21070;-87
2022/01/25 02:28:44;;;;;;;13.88;6.65;;;;;;;-7.21;100.00;101790.64;1628339;87;21055;-88
2022/01/25 02:31:15;;;;;;;12.20;6.40;;;;;;;-7.22;100.00;101790.20;1648235;87;21078;-88
2022/01/25 02:33:43;;;;;;;9.85;5.87;;;;;;;-7.21;100.00;101793.17;1647970;87;21232;-88
2022/01/25 02:36:15;;;;;;;13.35;6.60;;;;;;;-7.22;100.00;101795.27;1651191;86;21106;-88
2022/01/25 02:38:42;;;;;;;15.40;6.58;;;;;;;-7.24;100.00;101795.64;1648663;86;21058;-88
2022/01/25 02:41:09;;;;;;;13.93;6.33;;;;;;;-7.25;100.00;101800.29;1648491;87;21069;-89
2022/01/25 02:43:37;;;;;;;36.58;15.78;;;;;;;-7.26;100.00;101799.84;1648360;86;21671;-88
2022/01/25 02:48:56;;;;;;;29.75;12.13;;;;;;;-7.25;100.00;101791.43;1636863;86;21443;-89
2022/01/25 02:51:38;;;;;;;77.25;28.60;;;;;;;-7.23;100.00;101786.83;1648735;86;21102;-89
2022/01/25 02:54:08;;;;;;;89.32;30.48;;;;;;;-7.20;100.00;101784.75;1648040;87;21149;-87
2022/01/25 02:56:37;;;;;;;32.67;12.88;;;;;;;-7.20;100.00;101785.59;1647206;86;21129;-89
2022/01/25 02:59:07;;;;;;;120.95;38.33;;;;;;;-7.21;100.00;101789.37;1648058;87;21147;-89
2022/01/25 03:01:36;;;;;;;68.80;27.17;;;;;;;-7.23;100.00;101793.55;1636009;86;21145;-88
2022/01/25 03:04:06;;;;;;;47.05;18.17;;;;;;;-7.24;100.00;101802.84;1647994;86;21070;-88
2022/01/25 03:06:34;;;;;;;29.80;14.50;;;;;;;-7.23;100.00;101810.00;1647902;86;21674;-86
2022/01/25 03:09:06;;;;;;;34.92;19.67;;;;;;;-7.21;100.00;101802.03;1648162;87;21129;-86
2022/01/25 03:11:33;;;;;;;19.23;10.90;;;;;;;-7.21;100.00;101791.91;1647966;86;21142;-86
2022/01/25 03:14:04;;;;;;;14.33;8.68;;;;;;;-7.22;100.00;101792.73;1647620;86;20959;-86
2022/01/25 03:16:52;;;;;;;15.58;8.58;;;;;;;-7.24;100.00;101790.18;1647646;86;22143;-87
2022/01/25 03:24:48;;;;;;;19.12;8.08;;;;;;;-7.28;100.00;101803.59;1615575;86;21790;-87
2022/01/25 03:27:16;;;;;;;16.97;8.50;;;;;;;-7.27;100.00;101793.91;1635475;86;21109;-88
2022/01/25 03:29:45;;;;;;;17.65;7.25;;;;;;;-7.26;100.00;101789.72;1634945;86;21551;-90
2022/01/25 03:32:14;;;;;;;17.80;8.55;;;;;;;-7.29;100.00;101795.16;1633806;86;21094;-87
2022/01/25 03:34:40;;;;;;;20.62;8.55;;;;;;;-7.31;100.00;101793.01;1657259;86;21532;-88
2022/01/25 03:37:08;;;;;;;17.30;8.73;;;;;;;-7.32;100.00;101796.78;1629925;86;21851;-89
2022/01/25 03:39:35;;;;;;;16.40;8.43;;;;;;;-7.32;100.00;101786.66;1657587;86;21582;-88
2022/01/25 03:42:06;;;;;;;21.37;8.50;;;;;;;-7.33;100.00;101787.06;1638629;87;21619;-90
2022/01/25 03:44:31;;;;;;;17.37;7.87;;;;;;;-7.34;100.00;101794.63;1634504;86;21057;-88
2022/01/25 03:47:05;;;;;;;20.65;8.08;;;;;;;-7.35;100.00;101795.06;1630254;86;21146;-88
2022/01/25 03:52:13;;;;;;;16.05;7.05;;;;;;;-7.31;100.00;101784.58;1638794;86;21045;-89
2022/01/25 03:54:40;;;;;;;15.43;7.58;;;;;;;-7.31;100.00;101798.50;1657822;85;21548;-89
2022/01/25 03:57:07;;;;;;;15.43;7.62;;;;;;;-7.31;100.00;101797.23;1639247;86;21070;-87
2022/01/25 03:59:34;;;;;;;13.80;6.85;;;;;;;-7.27;100.00;101794.34;1657678;86;21603;-86
2022/01/25 04:02:02;;;;;;;15.58;7.37;;;;;;;-7.25;100.00;101796.49;1629754;86;21197;-88
2022/01/25 04:04:30;;;;;;;16.97;7.03;;;;;;;-7.25;100.00;101801.55;1680098;83;21085;-87
2022/01/25 04:06:58;;;;;;;14.65;6.87;;;;;;;-7.27;100.00;101804.04;1684811;85;21121;-88
2022/01/25 04:09:28;;;;;;;12.73;7.03;;;;;;;-7.27;100.00;101807.84;1660503;85;21090;-89
2022/01/25 04:11:55;;;;;;;16.17;7.85;;;;;;;-7.26;100.00;101812.50;1678205;83;21128;-89
2022/01/25 04:14:23;;;;;;;19.05;8.58;;;;;;;-7.25;100.00;101799.86;1657280;86;21074;-89
2022/01/25 04:17:07;;;;;;;20.92;12.40;;;;;;;-7.25;100.00;101802.82;1629712;85;21556;-89
2022/01/25 04:19:40;;;;;;;21.25;10.58;;;;;;;-7.26;100.00;101803.64;1657317;85;21110;-88
2022/01/25 04:25:04;;;;;;;19.82;9.75;;;;;;;-7.27;100.00;101815.86;1654613;84;21134;-88
2022/01/25 04:27:24;;;;;;;16.55;7.22;;;;;;;-7.30;100.00;101814.97;1626827;86;21980;-88
2022/01/25 04:29:52;;;;;;;16.32;8.20;;;;;;;-7.31;100.00;101823.37;1644984;85;21153;-88
2022/01/25 04:32:31;;;;;;;19.62;8.88;;;;;;;-7.33;100.00;101819.96;1672325;84;21116;-89
2022/01/25 04:54:19;;;;;;;15.03;7.70;;;;;;;-7.20;100.00;101808.38;1654254;86;21051;-95
2022/01/25 04:56:55;;;;;;;15.17;7.80;;;;;;;-7.15;100.00;101813.53;1651154;86;21067;-90
2022/01/25 05:01:42;;;;;;;50.15;17.57;;;;;;;-6.95;100.00;101822.73;1654685;84;21037;-93
2022/01/25 05:04:15;;;;;;;17.73;9.23;;;;;;;-6.85;100.00;101819.95;1631661;86;21099;-91
2022/01/25 05:06:41;;;;;;;30.08;12.55;;;;;;;-6.82;100.00;101814.92;1651150;86;21845;-94
2022/01/25 05:09:10;;;;;;;23.20;9.78;;;;;;;-6.85;100.00;101807.30;1651834;85;21047;-92
2022/01/25 05:11:45;;;;;;;76.67;35.30;;;;;;;-6.91;100.00;101808.44;1633420;86;21038;-95
2022/01/25 05:14:15;;;;;;;183.95;73.15;;;;;;;-6.91;100.00;101813.50;1632678;86;21556;-90
2022/01/25 05:16:48;;;;;;;176.18;70.17;;;;;;;-6.93;100.00;101806.31;1632485;86;21039;-91
2022/01/25 05:24:39;;;;;;;28.65;17.75;;;;;;;-6.91;100.00;101817.30;1638797;86;21078;-94
2022/01/25 05:27:14;;;;;;;19.92;10.15;;;;;;;-6.89;100.00;101807.63;1636577;86;21031;-91
2022/01/25 05:29:42;;;;;;;17.92;9.15;;;;;;;-6.87;100.00;101810.20;1628061;86;21891;-92
2022/01/25 05:32:09;;;;;;;15.68;8.38;;;;;;;-6.88;100.00;101811.03;1612731;86;21156;-90
2022/01/25 05:34:37;;;;;;;13.05;6.92;;;;;;;-6.88;100.00;101817.36;1610101;87;21126;-91
2022/01/25 05:37:06;;;;;;;18.17;11.48;;;;;;;-6.92;100.00;101820.27;1613036;87;21133;-90
2022/01/25 05:39:36;;;;;;;13.90;7.50;;;;;;;-6.91;100.00;101824.50;1580853;89;21104;-90
2022/01/25 05:42:44;;;;;;;17.77;8.78;;;;;;;-6.89;100.00;101813.13;1620001;86;21204;-91
2022/01/25 05:44:58;;;;;;;12.37;6.95;;;;;;;-6.89;100.00;101806.79;1658153;85;21118;-90
2022/01/25 05:47:29;;;;;;;15.20;7.70;;;;;;;-6.89;100.00;101802.98;1657061;84;21595;-89
2022/01/25 05:49:55;;;;;;;21.45;9.40;;;;;;;-6.88;100.00;101807.23;1655880;84;20999;-93
2022/01/25 05:52:24;;;;;;;22.75;10.85;;;;;;;-6.90;100.00;101811.02;1670929;85;21561;-92
2022/01/25 05:54:52;;;;;;;31.85;12.93;;;;;;;-6.89;100.00;101811.86;1653671;85;21071;-90
2022/01/25 05:57:19;;;;;;;19.80;9.23;;;;;;;-6.86;100.00;101811.91;1627554;87;21121;-89
2022/01/25 05:59:47;;;;;;;20.85;9.75;;;;;;;-6.87;100.00;101812.74;1626363;88;21094;-90
2022/01/25 06:02:20;;;;;;;21.42;11.10;;;;;;;-6.87;100.00;101816.11;1601984;89;21603;-90
2022/01/25 06:04:46;;;;;;;18.60;8.58;;;;;;;-6.87;100.00;101805.98;1601554;89;21042;-90
2022/01/25 06:07:13;;;;;;;16.75;8.38;;;;;;;-6.88;100.00;101805.97;1600685;89;21118;-91
2022/01/25 06:09:42;;;;;;;14.15;7.47;;;;;;;-6.92;100.00;101807.99;1627581;88;21075;-90
2022/01/25 06:12:11;;;;;;;17.73;9.25;;;;;;;-6.97;100.00;101803.72;1628331;87;20995;-90
2022/01/25 06:14:39;;;;;;;14.75;8.28;;;;;;;-6.99;100.00;101808.33;1627974;87;21172;-89
2022/01/25 06:17:06;;;;;;;14.00;6.72;;;;;;;-6.99;100.00;101817.19;1621685;88;21694;-93
2022/01/25 06:19:33;;;;;;;18.57;10.75;;;;;;;-7.00;100.00;101815.48;1627975;87;21506;-93
2022/01/25 06:22:00;;;;;;;16.35;8.38;;;;;;;-7.00;100.00;101809.15;1628169;87;21855;-90
2022/01/25 06:24:27;;;;;;;11.53;7.05;;;;;;;-6.98;100.00;101806.23;1643542;84;21169;-91
2022/01/25 06:26:54;;;;;;;13.80;6.97;;;;;;;-6.94;100.00;101804.18;1668878;85;21081;-93
2022/01/25 06:29:21;;;;;;;12.73;7.15;;;;;;;-6.89;100.00;101805.52;1704575;83;21138;-91
2022/01/25 06:31:48;;;;;;;13.70;7.30;;;;;;;-6.84;100.00;101804.78;1704308;84;21200;-91
2022/01/25 06:34:16;;;;;;;13.90;7.80;;;;;;;-6.82;100.00;101806.06;1704046;83;21178;-90
2022/01/25 06:36:46;;;;;;;12.55;7.28;;;;;;;-6.79;100.00;101809.05;1703772;83;21138;-89
2022/01/25 06:39:14;;;;;;;11.00;6.42;;;;;;;-6.78;100.00;101805.69;1703870;83;21062;-91
2022/01/25 06:41:41;;;;;;;12.13;6.75;;;;;;;-6.76;100.00;101804.05;1704138;83;21070;-93
2022/01/25 06:44:08;;;;;;;14.43;7.72;;;;;;;-6.75;100.00;101802.79;1707977;83;21145;-92
2022/01/25 06:46:36;;;;;;;15.30;8.68;;;;;;;-6.72;100.00;101802.84;1686088;84;21723;-91
2022/01/25 06:49:03;;;;;;;15.30;8.65;;;;;;;-6.70;100.00;101801.59;1682756;85;21038;-93
2022/01/25 06:51:30;;;;;;;15.08;8.53;;;;;;;-6.72;100.00;101802.84;1648586;85;21064;-91
2022/01/25 06:53:57;;;;;;;14.93;8.38;;;;;;;-6.77;100.00;101803.17;1650729;85;21057;-87
2022/01/25 06:56:24;;;;;;;12.45;7.67;;;;;;;-6.84;100.00;101806.44;1674836;85;21059;-91
2022/01/25 06:58:51;;;;;;;13.45;7.60;;;;;;;-6.90;100.00;101805.95;1656627;84;21296;-90
2022/01/25 07:01:18;;;;;;;13.32;7.20;;;;;;;-6.90;100.00;101805.08;1678297;83;21073;-90
2022/01/25 07:03:46;;;;;;;17.45;8.35;;;;;;;-6.87;100.00;101808.94;1692333;83;21046;-93
2022/01/25 07:06:18;;;;;;;18.37;7.95;;;;;;;-6.83;100.00;101801.42;1638193;83;21543;-92
2022/01/25 07:08:52;;;;;;;15.23;8.60;;;;;;;-6.76;100.00;101803.61;1659490;85;21095;-91
2022/01/25 07:11:20;;;;;;;17.73;8.10;;;;;;;-6.73;100.00;101797.34;1656610;85;21154;-91
2022/01/25 07:13:47;;;;;;;73.17;31.45;;;;;;;-6.74;100.00;101802.39;1682719;84;21038;-90
2022/01/25 07:16:15;;;;;;;28.10;13.03;;;;;;;-6.73;100.00;101797.34;1636460;85;22443;-92
2022/01/25 07:18:42;;;;;;;23.85;13.00;;;;;;;-6.70;100.00;101800.33;1684788;84;21066;-89
2022/01/25 07:21:10;;;;;;;18.05;9.80;;;;;;;-6.69;100.00;101800.77;1638295;85;21174;-92
2022/01/25 07:23:37;;;;;;;17.00;8.93;;;;;;;-6.69;100.00;101803.30;1673800;84;21147;-90
2022/01/25 07:26:05;;;;;;;17.35;9.18;;;;;;;-6.70;100.00;101798.66;1672404;84;21576;-92
2022/01/25 07:28:36;;;;;;;20.37;12.25;;;;;;;-6.72;100.00;101801.58;1694997;83;21148;-89
2022/01/25 07:31:05;;;;;;;18.77;10.05;;;;;;;-6.70;100.00;101805.00;1678959;84;21057;-92
2022/01/25 07:33:32;;;;;;;15.13;8.98;;;;;;;-6.64;100.00;101805.91;1684703;85;21067;-90
2022/01/25 07:36:00;;;;;;;25.85;10.48;;;;;;;-6.61;100.00;101802.17;1645848;86;21766;-89
2022/01/25 07:38:27;;;;;;;16.75;9.43;;;;;;;-6.58;100.00;101812.33;1637046;86;21028;-92
2022/01/25 07:40:54;;;;;;;16.82;8.23;;;;;;;-6.55;100.00;101804.79;1658127;85;21525;-92
2022/01/25 07:43:22;;;;;;;15.90;7.80;;;;;;;-6.51;100.00;101802.72;1645476;86;21151;-93
2022/01/25 07:45:53;;;;;;;15.63;8.53;;;;;;;-6.49;100.00;101807.41;1651117;85;21097;-91
2022/01/25 07:48:21;;;;;;;12.60;7.85;;;;;;;-6.47;100.00;101802.34;1660827;85;21788;-90
2022/01/25 07:50:49;;;;;;;15.45;7.90;;;;;;;-6.44;100.00;101798.17;1613537;86;21081;-92
2022/01/25 07:53:17;;;;;;;13.68;8.33;;;;;;;-6.42;100.00;101795.25;1666032;85;21015;-93
2022/01/25 07:55:44;;;;;;;17.17;8.53;;;;;;;-6.37;100.00;101797.42;1650083;85;21548;-95
2022/01/25 07:58:11;;;;;;;14.58;7.75;;;;;;;-6.31;100.00;101794.56;1654319;85;21109;-93
2022/01/25 08:00:39;;;;;;;13.62;7.37;;;;;;;-6.30;100.00;101795.00;1612973;86;21106;-93
2022/01/25 08:03:07;;;;;;;13.75;8.30;;;;;;;-6.22;100.00;101798.50;1648249;86;21079;-94
2022/01/25 08:05:34;;;;;;;16.15;8.20;;;;;;;-6.21;100.00;101806.55;1649443;86;21034;-93
2022/01/25 08:08:02;;;;;;;18.27;8.90;;;;;;;-6.20;100.00;101800.22;1648874;86;21019;-94
2022/01/25 08:10:30;;;;;;;17.05;7.95;;;;;;;-6.16;100.00;101797.30;1650782;85;21058;-91
2022/01/25 08:12:59;;;;;;;14.63;8.88;;;;;;;-6.12;100.00;101799.45;1662971;85;22027;-91
2022/01/25 08:15:26;;;;;;;18.48;8.10;;;;;;;-6.11;100.00;101802.44;1668874;84;21154;-92
2022/01/25 08:17:53;;;;;;;14.63;8.33;;;;;;;-6.10;100.00;101799.07;1684067;85;21073;-94
2022/01/25 08:20:20;;;;;;;16.67;8.78;;;;;;;-6.11;100.00;101805.81;1646692;86;21162;-95
2022/01/25 08:22:48;;;;;;;15.48;9.38;;;;;;;-6.09;100.00;101800.34;1625006;87;21094;-91
2022/01/25 08:25:16;;;;;;;14.20;7.70;;;;;;;-6.05;100.00;101805.88;1653482;85;21156;-91
2022/01/25 08:27:43;;;;;;;18.90;11.57;;;;;;;-6.00;100.00;101812.28;1667507;85;21578;-91
2022/01/25 08:30:12;;;;;;;18.73;10.88;;;;;;;-6.00;100.00;101803.84;1671314;85;21058;-90
2022/01/25 08:32:39;;;;;;;16.57;9.53;;;;;;;-5.99;100.00;101799.20;1674442;85;21185;-91
2022/01/25 08:35:07;;;;;;;30.23;21.52;;;;;;;-6.00;100.00;101800.03;1651200;85;20982;-90
2022/01/25 08:37:35;;;;;;;18.48;11.53;;;;;;;-5.95;100.00;101791.62;1668299;85;21167;-91
2022/01/25 08:40:04;;;;;;;16.30;10.90;;;;;;;-5.86;100.00;101793.00;1652630;85;21023;-91
2022/01/25 08:42:32;;;;;;;16.02;8.93;;;;;;;-5.83;100.00;101790.91;1633522;86;21142;-91
2022/01/25 08:45:00;;;;;;;18.73;9.73;;;;;;;-5.83;100.00;101792.19;1668687;85;21062;-91
2022/01/25 08:47:27;;;;;;;18.12;11.18;;;;;;;-5.82;100.00;101785.02;1651294;85;21261;-91
2022/01/25 08:49:55;;;;;;;17.62;11.70;;;;;;;-5.79;100.00;101786.73;1674668;85;21183;-90
2022/01/25 08:52:23;;;;;;;19.32;11.22;;;;;;;-5.76;100.00;101787.61;1673198;85;21094;-91
2022/01/25 08:54:50;;;;;;;15.45;8.78;;;;;;;-5.72;100.00;101784.69;1654650;85;21816;-91
2022/01/25 08:57:18;;;;;;;14.58;9.90;;;;;;;-5.67;100.00;101789.82;1670408;85;21077;-91
2022/01/25 08:59:46;;;;;;;22.45;10.85;;;;;;;-5.57;100.00;101788.66;1654462;85;21079;-91
2022/01/25 09:02:13;;;;;;;14.30;8.70;;;;;;;-5.45;100.00;101793.02;1662341;85;21188;-90
2022/01/25 09:04:40;;;;;;;18.77;9.73;;;;;;;-5.40;100.00;101786.28;1665014;85;21150;-91
2022/01/25 09:07:09;;;;;;;19.77;10.98;;;;;;;-5.39;100.00;101788.42;1651404;85;21538;-92
2022/01/25 09:09:39;;;;;;;15.88;9.63;;;;;;;-5.40;100.00;101784.18;1669046;85;21061;-90
2022/01/25 09:12:07;;;;;;;66.60;41.30;;;;;;;-5.37;100.00;101788.03;1656430;85;21118;-91
2022/01/25 09:14:35;;;;;;;39.05;21.42;;;;;;;-5.31;100.00;101793.16;1659893;85;21234;-92
2022/01/25 09:17:02;;;;;;;20.12;10.03;;;;;;;-5.25;100.00;101791.11;1656888;84;21141;-92
2022/01/25 09:19:31;;;;;;;40.50;15.55;;;;;;;-5.26;100.00;101790.66;1673309;85;21031;-86
2022/01/25 09:22:00;;;;;;;17.25;9.30;;;;;;;-5.35;100.00;101797.76;1661375;85;21045;-86
2022/01/25 09:24:28;;;;;;;18.40;10.40;;;;;;;-5.24;100.00;101796.59;1635024;86;21556;-93
2022/01/25 09:26:55;;;;;;;24.07;10.50;;;;;;;-5.06;100.00;101787.03;1656526;85;21168;-93
2022/01/25 09:29:22;;;;;;;16.87;9.55;;;;;;;-5.00;100.00;101783.67;1648761;86;21063;-90
2022/01/25 09:31:50;;;;;;;22.32;9.63;;;;;;;-5.02;100.00;101775.20;1644847;84;21559;-92
2022/01/25 09:34:19;;;;;;;16.73;9.73;;;;;;;-5.07;100.00;101770.92;1619641;86;21059;-94
2022/01/25 09:36:46;;;;;;;18.45;9.10;;;;;;;-5.08;100.00;101767.95;1609180;87;21005;-93
2022/01/25 09:39:14;;;;;;;14.55;7.97;;;;;;;-5.07;100.00;101767.55;1677751;84;21073;-95
2022/01/25 09:41:41;;;;;;;16.12;9.50;;;;;;;-5.10;100.00;101762.03;1697844;83;21586;-95
2022/01/25 09:44:09;;;;;;;11.68;7.90;;;;;;;-5.17;100.00;101759.41;1686240;84;21063;-92
2022/01/25 09:46:37;;;;;;;16.12;9.00;;;;;;;-5.19;100.00;101755.59;1685204;84;21172;-90
2022/01/25 09:49:04;;;;;;;18.10;9.78;;;;;;;-5.27;100.00;101754.67;1696416;84;21656;-94
2022/01/25 09:51:33;;;;;;;17.67;10.30;;;;;;;-5.43;100.00;101758.74;1674009;84;21799;-92
2022/01/25 09:54:01;;;;;;;17.80;9.95;;;;;;;-5.58;100.00;101760.73;1691823;84;21064;-92
2022/01/25 09:56:28;;;;;;;19.55;9.95;;;;;;;-5.74;100.00;101763.11;1690016;84;21062;-92
2022/01/25 09:58:55;;;;;;;16.45;9.13;;;;;;;-5.82;100.00;101758.77;1626989;86;21111;-94
2022/01/25 10:01:31;;;;;;;16.30;9.55;;;;;;;-5.82;100.00;101757.10;1690149;83;21102;-90
2022/01/25 10:04:01;;;;;;;14.98;8.83;;;;;;;-5.80;100.00;101749.06;1697691;83;21139;-94
2022/01/25 10:06:32;;;;;;;16.93;8.55;;;;;;;-5.73;100.00;101750.83;1691194;83;21583;-92
2022/01/25 10:08:59;;;;;;;13.45;8.28;;;;;;;-5.68;100.00;101744.53;1699161;83;21069;-89
2022/01/25 10:11:27;;;;;;;17.23;8.20;;;;;;;-5.62;100.00;101747.56;1658977;84;21047;-92
2022/01/25 10:13:57;;;;;;;13.83;8.08;;;;;;;-5.51;100.00;101749.80;1692958;84;21142;-95
2022/01/25 10:16:36;;;;;;;15.63;8.57;;;;;;;-5.41;100.00;101749.03;1689819;84;21129;-93
2022/01/25 10:19:07;;;;;;;17.07;9.43;;;;;;;-5.33;100.00;101743.20;1680115;83;21023;-93
2022/01/25 10:21:51;;;;;;;15.28;8.83;;;;;;;-5.27;100.00;101743.25;1659934;85;21130;-91
2022/01/25 10:24:22;;;;;;;14.35;8.00;;;;;;;-5.27;100.00;101739.00;1689342;83;21125;-91
2022/01/25 10:26:57;;;;;;;15.05;9.23;;;;;;;-5.27;100.00;101747.05;1692278;83;21098;-92
2022/01/25 10:29:31;;;;;;;15.45;8.58;;;;;;;-5.34;100.00;101736.42;1707284;83;21139;-93
2022/01/25 10:32:09;;;;;;;14.60;8.38;;;;;;;-5.44;100.00;101744.34;1700355;83;21484;-93
2022/01/25 10:34:44;;;;;;;18.65;11.15;;;;;;;-5.48;100.00;101749.81;1694702;83;21022;-95
2022/01/25 10:37:17;;;;;;;15.70;8.85;;;;;;;-5.47;100.00;101738.83;1676225;85;21038;-92
2022/01/25 10:39:52;;;;;;;14.47;8.35;;;;;;;-5.42;100.00;101736.33;1657058;84;21064;-93
2022/01/25 10:42:26;;;;;;;14.78;8.78;;;;;;;-5.37;100.00;101732.56;1684705;85;21125;-90
2022/01/25 10:45:07;;;;;;;18.73;9.55;;;;;;;-5.35;100.00;101734.71;1668518;85;21122;-91
2022/01/25 10:47:46;;;;;;;15.05;8.20;;;;;;;-5.34;100.00;101728.37;1634971;86;21069;-94
2022/01/25 10:50:21;;;;;;;15.38;8.08;;;;;;;-5.33;100.00;101717.81;1680050;83;21524;-94
2022/01/25 10:53:15;;;;;;;17.48;9.55;;;;;;;-5.21;100.00;101720.87;1679383;83;21007;-96
2022/01/25 10:55:46;;;;;;;17.35;9.58;;;;;;;-5.14;100.00;101718.37;1658259;84;21159;-92
2022/01/25 10:58:15;;;;;;;16.30;9.20;;;;;;;-5.01;100.00;101713.41;1673210;84;21051;-91
2022/01/25 11:00:46;;;;;;;16.97;9.13;;;;;;;-4.95;100.00;101709.19;1693592;83;21026;-90
2022/01/25 11:03:40;;;;;;;17.40;9.53;;;;;;;-4.93;100.00;101707.95;1673191;85;21018;-89
2022/01/25 11:06:17;;;;;;;14.30;8.38;;;;;;;-4.89;100.00;101707.12;1629800;85;21009;-89
2022/01/25 11:08:49;;;;;;;11.78;7.05;;;;;;;-4.85;100.00;101708.86;1664589;85;21573;-90
2022/01/25 11:11:33;;;;;;;14.70;9.25;;;;;;;-4.70;100.00;101703.42;1686898;83;21153;-90
2022/01/25 11:14:50;;;;;;;16.52;9.68;;;;;;;-4.60;100.00;101700.08;1701290;83;21108;-90
2022/01/25 11:16:34;;;;;;;16.42;9.75;;;;;;;-4.49;100.00;101694.64;1657116;85;21043;-89
2022/01/25 11:19:01;;;;;;;17.10;9.95;;;;;;;-4.41;100.00;101687.05;1685633;85;21601;-90
2022/01/25 11:21:29;;;;;;;17.57;9.65;;;;;;;-4.37;100.00;101690.45;1637341;85;21184;-90
2022/01/25 11:23:56;;;;;;;12.95;8.00;;;;;;;-4.38;100.00;101690.03;1664481;85;21119;-90
2022/01/25 11:26:24;;;;;;;14.60;8.68;;;;;;;-4.40;100.00;101691.27;1647147;85;21172;-90
2022/01/25 11:28:51;;;;;;;15.90;8.65;;;;;;;-4.34;100.00;101690.05;1693283;83;21145;-90
2022/01/25 11:31:22;;;;;;;16.87;9.93;;;;;;;-4.36;100.00;101690.86;1663400;84;21077;-89
2022/01/25 11:33:51;;;;;;;;;;;;;;;-4.42;100.00;101685.75;1639598;86;21136;-90
2022/01/25 11:36:20;;;;;;;15.13;8.40;;;;;;;-4.46;100.00;101683.63;1674396;85;20531;-89
2022/01/25 11:38:51;;;;;;;15.43;9.18;;;;;;;-4.54;100.00;101684.87;1677263;85;21114;-89
2022/01/25 11:41:23;;;;;;;17.10;10.18;;;;;;;-4.61;100.00;101687.80;1662781;85;21048;-89
2022/01/25 11:44:21;;;;;;;16.67;9.68;;;;;;;-4.78;100.00;101694.47;1651203;85;21031;-89
2022/01/25 11:47:13;;;;;;;15.65;8.40;;;;;;;-5.00;100.00;101684.19;1681384;84;21141;-90
2022/01/25 11:50:07;;;;;;;18.30;9.18;;;;;;;-5.13;100.00;101676.89;1688517;83;21137;-88
2022/01/25 11:52:36;;;;;;;17.65;9.13;;;;;;;-5.09;100.00;101678.60;1693381;83;21069;-92
2022/01/25 11:55:26;;;;;;;17.37;10.10;;;;;;;-5.04;100.00;101684.16;1685228;85;21528;-92
2022/01/25 11:58:03;;;;;;;96.22;40.43;;;;;;;-4.98;100.00;101681.24;1665813;84;21078;-94
2022/01/25 12:00:50;;;;;;;40.00;18.37;;;;;;;-4.89;100.00;101676.63;1687996;83;21819;-95
2022/01/25 12:03:31;;;;;;;79.55;28.50;;;;;;;-4.80;100.00;101672.01;1685808;83;21587;-91
2022/01/25 12:06:07;;;;;;;58.80;24.05;;;;;;;-4.72;100.00;101673.33;1647761;85;21031;-92
2022/01/25 12:11:50;;;;;;;79.72;40.08;;;;;;;-4.50;100.00;101661.14;1671689;84;21045;-91
2022/01/25 12:14:48;;;;;;;59.60;34.50;;;;;;;-4.39;100.00;101662.45;1681943;83;21194;-90
2022/01/25 12:17:23;;;;;;;28.62;14.03;;;;;;;-4.24;100.00;101660.40;1682730;84;21137;-91
2022/01/25 12:19:54;;;;;;;19.48;11.12;;;;;;;-4.20;100.00;101659.98;1652059;84;21382;-90
2022/01/25 12:22:41;;;;;;;20.10;10.45;;;;;;;-4.20;100.00;101658.72;1703624;83;21639;-91
2022/01/25 12:25:34;;;;;;;22.10;14.25;;;;;;;-4.22;100.00;101656.17;1686562;83;21598;-91
2022/01/25 12:28:07;;;;;;;19.98;10.58;;;;;;;-4.23;100.00;101659.56;1670957;85;21240;-90
2022/01/25 12:30:38;;;;;;;20.70;11.00;;;;;;;-4.16;100.00;101653.64;1693321;83;21825;-91
2022/01/25 12:33:13;;;;;;;21.45;11.12;;;;;;;-4.08;100.00;101654.08;1636659;85;21034;-89
2022/01/25 12:35:50;;;;;;;21.17;13.70;;;;;;;-4.02;100.00;101647.73;1659455;84;21096;-91
2022/01/25 12:38:31;;;;;;;16.52;9.73;;;;;;;-3.97;100.00;101656.23;1634168;86;21075;-90
2022/01/25 12:41:16;;;;;;;18.60;11.05;;;;;;;-3.89;100.00;101646.92;1634909;86;21216;-91
2022/01/25 12:43:54;;;;;;;18.37;9.93;;;;;;;-3.85;100.00;101652.43;1662465;85;21058;-91
2022/01/25 12:46:25;;;;;;;24.10;10.03;;;;;;;-3.97;100.00;101647.33;1650779;85;21117;-88
2022/01/25 12:48:59;;;;;;;20.02;10.93;;;;;;;-4.03;100.00;101644.75;1699536;83;21033;-91
2022/01/25 12:51:34;;;;;;;19.27;10.10;;;;;;;-3.91;100.00;101639.70;1689980;83;21426;-93
2022/01/25 12:54:05;;;;;;;18.52;11.28;;;;;;;-3.84;100.00;101634.17;1661937;84;21225;-92
2022/01/25 12:56:41;;;;;;;22.00;12.90;;;;;;;-3.97;100.00;101626.54;1656218;85;21057;-88
2022/01/25 12:59:13;;;;;;;16.23;9.60;;;;;;;-4.08;100.00;101630.74;1676634;84;21608;-89
2022/01/25 13:01:43;;;;;;;20.17;10.95;;;;;;;-4.16;100.00;101631.16;1670702;85;21018;-91
2022/01/25 13:04:11;;;;;;;22.15;10.45;;;;;;;-4.19;100.00;101637.52;1614541;86;21655;-91